• Join FlightAware (Why Join?)
  • Login
  • US Flag 
06:38PM EST


 

Airport Tracker/Info


-or-


 

Live Flight TrackerFlight Track Log ✈ AWI3551 ✈ 07-Jun-2013 ✈ KBUF - KPHL

Flight Track Log - Related Links

Times and Time Zones

All times are in EDT time to prevent confusion due to time zone crossing. See the AWI3551 flight status page for this flight to view local times or setup timezone preferences in your user account.

Time Position Orientation Groundspeed Altitude Reporting Facility
EDT Latitude Longitude Course Direction KTS MPH feet Rate Location/Type
05:31AM 42.9333 -78.7500 174° South 147 169 1,500  Level Buffalo TRACON
05:32AM 42.8833 -78.8000 216° Southwest 222 255 3,200 1,680 Climbing Buffalo TRACON
05:33AM 42.6114 -78.6823 172° South  Level FlightAware Approximate
05:33AM 42.8050 -78.8089 185° South 267 307 5,300  Level Cleveland Center
05:34AM 42.5162 -78.6638 173° South  Level FlightAware Approximate
05:34AM 42.7358 -78.7853 166° South 278 320 7,700  Level Cleveland Center
05:35AM 42.4206 -78.6500 180° South  Level FlightAware Approximate
05:35AM 42.6583 -78.7622 168° South 278 320 10,700  Level Cleveland Center
05:36AM 42.3246 -78.6440 174° South  Level FlightAware Approximate
05:36AM 42.5767 -78.7392 168° South 283 326 12,200  Level Cleveland Center
05:37AM 42.4889 -78.7164 169° South 305 351 13,600 1,440 Climbing Cleveland Center
05:38AM 42.3969 -78.6939 170° South 322 371 15,100 1,440 Climbing Cleveland Center
05:39AM 42.3025 -78.6686 169° South 334 384 16,500 1,200 Climbing Cleveland Center
05:40AM 42.2042 -78.6461 170° South 354 407 17,500 960 Climbing Cleveland Center
05:41AM 42.1164 -78.6264 171° South 359 413 18,500 960 Climbing Cleveland Center
05:42AM 42.0142 -78.6242 179° South 359 413 19,500 960 Climbing Cleveland Center
05:43AM 41.9142 -78.6244 180° South 364 419 20,500 960 Climbing Cleveland Center
05:44AM 41.8161 -78.6189 178° South 364 419 21,500 960 Climbing Cleveland Center
05:45AM 41.7194 -78.5747 161° South 356 410 22,500 720 Climbing Cleveland Center
05:46AM 41.6286 -78.5081 151° Southeast 361 415 23,000 240 Climbing Cleveland Center
05:47AM 41.5272 -78.4336 151° Southeast 383 441 23,000  Level Cleveland Center
05:48AM 41.4278 -78.3619 152° Southeast 399 459 23,000  Level Cleveland Center
05:49AM 41.3261 -78.2881 151° Southeast 407 468 23,000  Level Cleveland Center
05:49AM 41.2611 -78.2431 153° Southeast 423 487 23,000  Level New York Center
05:50AM 41.1578 -78.1653 150° Southeast 433 498 23,000  Level New York Center
05:51AM 41.0578 -78.0967 153° Southeast 427 491 23,000  Level New York Center
05:52AM 40.9581 -78.0228 151° Southeast 417 480 23,000  Level New York Center
05:53AM 40.8700 -77.9283 141° Southeast 412 474 23,000 -480 Level New York Center
05:54AM 40.7936 -77.8133 131° Southeast 412 474 22,100 -960 Descending New York Center
05:55AM 40.7175 -77.6906 129° Southeast 424 488 21,100 -1,020 Descending New York Center
05:56AM 40.6425 -77.5789 131° Southeast 419 482 20,100 -1,020 Descending New York Center
05:57AM 40.5697 -77.4678 131° Southeast 414 476 19,100 -600 Descending New York Center
05:58AM 40.4983 -77.3653 132° Southeast 388 447 19,000 -60 Descending New York Center
05:59AM 40.4631 -77.2500 112° Southeast 378 435 19,000  Level New York Center
06:00AM 40.4233 -77.0964 109° East 395 455 19,000  Level New York Center
06:01AM 40.3875 -76.9486 108° East 419 482 19,000 -360 Level New York Center
06:02AM 40.3511 -76.8036 108° East 419 482 18,300 -900 Descending New York Center
06:03AM 40.3200 -76.6758 108° East 413 475 17,200 -1,080 Descending New York Center
06:04AM 40.2850 -76.5422 109° East 402 463 16,200 -1,080 Descending New York Center
06:05AM 40.2483 -76.3975 108° East 393 452 15,100 -1,080 Descending New York Center
06:06AM 40.2169 -76.2644 107° East 388 447 14,100 -1,080 Descending New York Center
06:07AM 40.1833 -76.1369 109° East 383 441 13,000 -1,380 Descending New York Center
06:08AM 40.1547 -76.0289 109° East 360 414 11,400 -1,980 Descending New York Center
06:09AM 40.1264 -75.9153 108° East 314 361 9,100 -1,860 Descending New York Center
06:10AM 40.1011 -75.8239 110° East 297 342 7,700 -1,620 Descending New York Center
06:11AM 40.0806 -75.7167 104° East 286 329 6,000 -900 Descending New York Center
06:12AM 40.0744 -75.6183 95° East 278 320 6,000  Level New York Center
06:13AM 40.0372 -75.5561 128° Southeast 230 265 6,000 -600 Level New York Center
06:14AM 39.9900 -75.5367 162° South 180 207 4,900 -1,020 Descending New York Center
06:15AM 39.9408 -75.5197 165° South 180 207 4,000 -480 Descending New York Center
06:16AM 39.9044 -75.5417 205° Southwest 175 201 4,000 -360 Level New York Center
06:17AM 39.8617 -75.5711 208° Southwest 168 193 3,300 -780 Descending New York Center
06:18AM 39.8500 -75.5667 164° South 172 198 3,000 -240 Descending Philadelphia TRACON
06:19AM 39.8167 -75.5333 142° Southeast 185 213 3,000  Level Philadelphia TRACON
06:20AM 39.8167 -75.4833 90° East 144 166 3,000  Level Philadelphia TRACON